Time;durP1;ratioP1;P1;durP2;ratioP2;P2;SDS_P1;SDS_P2;PMS_P1;PMS_P2;Temp;Humidity;BMP_temperature;BMP_pressure;BME280_temperature;BME280_humidity;BME280_pressure;Samples;Min_cycle;Max_cycle;Signal;HPM_P1;HPM_P2
2021/11/08 00:02:13;;;;;;;;;;;8.30;99.90;;;;;;5096020;28;19987;-67
2021/11/08 00:04:38;;;;;;;;;;;8.30;99.90;;;;;;5094670;28;19912;-67
2021/11/08 00:07:04;;;;;;;;;;;8.30;99.90;;;;;;5094667;28;19904;-67
2021/11/08 00:09:30;;;;;;;;;;;8.30;99.90;;;;;;5096044;28;20310;-67
2021/11/08 00:11:56;;;;;;;;;;;8.30;99.90;;;;;;5096965;28;19904;-68
2021/11/08 00:14:23;;;;;;;;;;;8.20;99.90;;;;;;5098609;28;20088;-68
2021/11/08 00:17:05;;;;;;;;;;;8.10;99.90;;;;;;5097509;28;19904;-68
2021/11/08 00:22:02;;;;;;;;;;;8.10;99.90;;;;;;5097007;28;19919;-68
2021/11/08 00:24:28;;;;;;;;;;;8.10;99.90;;;;;;5096833;28;19965;-68
2021/11/08 00:26:54;;;;;;;;;;;8.10;99.90;;;;;;5095641;28;19950;-68
2021/11/08 00:29:20;;;;;;;;;;;8.00;99.90;;;;;;5095295;28;20002;-67
2021/11/08 00:31:45;;;;;;;;;;;8.00;99.90;;;;;;5096737;28;20352;-67
2021/11/08 00:34:11;;;;;;;;;;;8.20;99.90;;;;;;5097457;28;19903;-67
2021/11/08 00:36:37;;;;;;;;;;;8.10;99.90;;;;;;5097204;28;20362;-68
2021/11/08 00:39:03;;;;;;;;;;;8.00;99.90;;;;;;5098329;28;20357;-67
2021/11/08 00:41:29;;;;;;;;;;;8.10;99.90;;;;;;5096310;28;19988;-67
2021/11/08 00:43:54;;;;;;;;;;;8.00;99.90;;;;;;5096984;28;19931;-67
2021/11/08 00:46:21;;;;;;;;;;;7.90;99.90;;;;;;5099262;28;19904;-67
2021/11/08 00:48:46;;;;;;;;;;;7.80;99.90;;;;;;5099369;28;19904;-67
2021/11/08 00:51:14;;;;;;;;;;;7.80;99.90;;;;;;5096748;28;19942;-67
2021/11/08 00:53:40;;;;;;;;;;;7.80;99.90;;;;;;5094132;28;20346;-67
2021/11/08 00:56:10;;;;;;;;;;;7.80;99.90;;;;;;5095311;28;19943;-68
2021/11/08 00:58:38;;;;;;;;;;;7.80;99.90;;;;;;5094404;28;19904;-67
2021/11/08 01:01:07;;;;;;;;;;;7.70;99.90;;;;;;5093753;28;19908;-67
2021/11/08 01:03:34;;;;;;;;;;;7.80;99.90;;;;;;5094865;28;19925;-67
2021/11/08 01:06:00;;;;;;;;;;;7.80;99.90;;;;;;5093621;28;19911;-67
2021/11/08 01:08:25;;;;;;;;;;;7.80;99.90;;;;;;5093440;28;20337;-67
2021/11/08 01:10:51;;;;;;;;;;;7.90;99.90;;;;;;5094944;28;19904;-67
2021/11/08 01:13:16;;;;;;;;;;;7.90;99.90;;;;;;5094923;28;20278;-67
2021/11/08 01:15:42;;;;;;;;;;;8.10;99.90;;;;;;5094952;28;19908;-67
2021/11/08 01:18:08;;;;;;;;;;;8.20;99.90;;;;;;5094615;28;20362;-67
2021/11/08 01:20:35;;;;;;;;;;;8.20;99.90;;;;;;5093064;28;19915;-67
2021/11/08 01:23:03;;;;;;;;;;;8.20;99.90;;;;;;5095180;28;19904;-67
2021/11/08 01:25:30;;;;;;;;;;;8.10;99.90;;;;;;5096676;28;19904;-67
2021/11/08 01:27:58;;;;;;;;;;;8.10;99.90;;;;;;5094636;28;20342;-67
2021/11/08 01:30:24;;;;;;;;;;;8.10;99.90;;;;;;5094386;28;20312;-67
2021/11/08 01:33:03;;;;;;;;;;;8.00;99.90;;;;;;5094649;28;19908;-67
2021/11/08 01:35:57;;;;;;;;;;;7.90;99.90;;;;;;5094435;28;19935;-68
2021/11/08 01:38:25;;;;;;;;;;;7.90;99.90;;;;;;5094715;28;19914;-68
2021/11/08 01:40:52;;;;;;;;;;;7.80;99.90;;;;;;5092512;28;19915;-68
2021/11/08 01:43:18;;;;;;;;;;;7.70;99.90;;;;;;5092616;28;19904;-68
2021/11/08 01:45:43;;;;;;;;;;;7.70;99.90;;;;;;5093887;28;19951;-68
2021/11/08 01:48:10;;;;;;;;;;;7.70;99.90;;;;;;5093999;28;19911;-68
2021/11/08 01:50:36;;;;;;;;;;;7.80;99.90;;;;;;5093662;28;19908;-68
2021/11/08 01:53:02;;;;;;;;;;;7.80;99.90;;;;;;5093559;28;19908;-67
2021/11/08 01:55:28;;;;;;;;;;;7.80;99.90;;;;;;5093834;28;19904;-68
2021/11/08 01:57:54;;;;;;;;;;;7.90;99.90;;;;;;5093695;28;19904;-67
2021/11/08 02:00:19;;;;;;;;;;;7.90;99.90;;;;;;5093578;28;19908;-67
2021/11/08 02:02:45;;;;;;;;;;;7.90;99.90;;;;;;5092616;28;19991;-67
2021/11/08 02:05:11;;;;;;;;;;;7.90;99.90;;;;;;5092545;28;19950;-68
2021/11/08 02:07:37;;;;;;;;;;;7.80;99.90;;;;;;5093905;28;19904;-67
2021/11/08 02:10:04;;;;;;;;;;;7.70;99.90;;;;;;5092365;28;20274;-68
2021/11/08 02:12:30;;;;;;;;;;;7.50;99.90;;;;;;5092344;28;19904;-69
2021/11/08 02:14:56;;;;;;;;;;;7.50;99.90;;;;;;5092759;28;19904;-68
2021/11/08 02:17:21;;;;;;;;;;;7.40;99.90;;;;;;5093874;28;20070;-68
2021/11/08 02:19:47;;;;;;;;;;;7.40;99.90;;;;;;5093806;28;20315;-67
2021/11/08 02:22:13;;;;;;;;;;;7.30;99.90;;;;;;5093910;28;19918;-67
2021/11/08 02:24:41;;;;;;;;;;;7.30;99.90;;;;;;5093817;28;20261;-67
2021/11/08 02:27:08;;;;;;;;;;;7.30;99.90;;;;;;5093551;28;19992;-67
2021/11/08 02:29:34;;;;;;;;;;;7.20;99.90;;;;;;5092876;28;19908;-67
2021/11/08 02:32:00;;;;;;;;;;;7.20;99.90;;;;;;5091903;28;19957;-67
2021/11/08 02:34:26;;;;;;;;;;;7.10;99.90;;;;;;5094962;28;19930;-67
2021/11/08 02:36:51;;;;;;;;;;;7.10;99.90;;;;;;5098499;28;20265;-67
2021/11/08 02:39:28;;;;;;;;;;;7.10;99.90;;;;;;5095725;28;19904;-67
2021/11/08 02:41:54;;;;;;;;;;;7.10;99.90;;;;;;5094128;28;20271;-67
2021/11/08 02:44:19;;;;;;;;;;;7.00;99.90;;;;;;5092351;28;19905;-67
2021/11/08 02:46:45;;;;;;;;;;;7.00;99.90;;;;;;5091979;28;19904;-67
2021/11/08 02:49:13;;;;;;;;;;;6.90;99.90;;;;;;5093118;28;19904;-67
2021/11/08 02:51:44;;;;;;;;;;;6.90;99.90;;;;;;5093177;28;19911;-67
2021/11/08 02:54:16;;;;;;;;;;;7.00;99.90;;;;;;5091591;28;20132;-67
2021/11/08 02:56:41;;;;;;;;;;;6.90;99.90;;;;;;5091588;28;19904;-67
2021/11/08 02:59:07;;;;;;;;;;;6.90;99.90;;;;;;5092845;28;19911;-67
2021/11/08 03:01:33;;;;;;;;;;;6.90;99.90;;;;;;5091461;28;20006;-67
2021/11/08 03:04:00;;;;;;;;;;;6.80;99.90;;;;;;5094218;28;19953;-67
2021/11/08 03:08:54;;;;;;;;;;;6.80;99.90;;;;;;5097379;28;19908;-67
2021/11/08 03:11:20;;;;;;;;;;;6.80;99.90;;;;;;5095464;28;20231;-67
2021/11/08 03:14:01;;;;;;;;;;;6.80;99.90;;;;;;5095537;28;19961;-67
2021/11/08 03:16:43;;;;;;;;;;;6.80;99.90;;;;;;5095515;28;19904;-67
2021/11/08 03:19:26;;;;;;;;;;;6.90;99.90;;;;;;5096686;28;20262;-67
2021/11/08 03:21:56;;;;;;;;;;;6.80;99.90;;;;;;5096711;28;19908;-67
2021/11/08 03:24:36;;;;;;;;;;;6.90;99.90;;;;;;5095361;28;20301;-67
2021/11/08 03:27:08;;;;;;;;;;;6.90;99.90;;;;;;5096572;28;19952;-67
2021/11/08 03:29:33;;;;;;;;;;;6.80;99.90;;;;;;5096695;28;19980;-67
2021/11/08 03:32:00;;;;;;;;;;;6.80;99.90;;;;;;5096355;28;19908;-67
2021/11/08 03:34:28;;;;;;;;;;;6.80;99.90;;;;;;5096759;28;20372;-67
2021/11/08 03:36:54;;;;;;;;;;;6.80;99.90;;;;;;5095017;28;20112;-67
2021/11/08 03:39:20;;;;;;;;;;;6.80;99.90;;;;;;5096283;28;20005;-67
2021/11/08 03:41:46;;;;;;;;;;;6.80;99.90;;;;;;5094751;28;19912;-67
2021/11/08 03:44:11;;;;;;;;;;;6.90;99.90;;;;;;5096846;28;19911;-67
2021/11/08 03:46:37;;;;;;;;;;;6.80;99.90;;;;;;5104689;28;19935;-67
2021/11/08 03:49:03;;;;;;;;;;;7.00;99.90;;;;;;5104108;28;19994;-67
2021/11/08 03:51:29;;;;;;;;;;;7.20;99.90;;;;;;5096981;28;20362;-67
2021/11/08 03:53:54;;;;;;;;;;;7.10;99.90;;;;;;5097713;28;20041;-68
2021/11/08 03:56:20;;;;;;;;;;;7.00;99.90;;;;;;5096530;28;19915;-68
2021/11/08 03:58:46;;;;;;;;;;;6.90;99.90;;;;;;5095834;28;19904;-68
2021/11/08 04:01:12;;;;;;;;;;;6.80;99.90;;;;;;5094317;28;19961;-71
2021/11/08 04:03:38;;;;;;;;;;;6.70;99.90;;;;;;5095744;28;19945;-68
2021/11/08 04:06:03;;;;;;;;;;;6.70;99.90;;;;;;5096264;28;19927;-66
2021/11/08 04:08:29;;;;;;;;;;;6.60;99.90;;;;;;5097943;28;19911;-66
2021/11/08 04:10:55;;;;;;;;;;;6.60;99.90;;;;;;5096212;28;19911;-67
2021/11/08 04:13:23;;;;;;;;;;;6.60;99.90;;;;;;5096412;28;19904;-67
2021/11/08 04:15:49;;;;;;;;;;;6.60;99.90;;;;;;5094866;28;19911;-67
2021/11/08 04:18:16;;;;;;;;;;;6.70;99.90;;;;;;5094582;28;19904;-67
2021/11/08 04:20:43;;;;;;;;;;;6.60;99.90;;;;;;5096782;28;20341;-67
2021/11/08 04:23:10;;;;;;;;;;;6.50;99.90;;;;;;5096377;28;19994;-67
2021/11/08 04:25:35;;;;;;;;;;;6.50;99.90;;;;;;5101252;28;19961;-67
2021/11/08 04:28:01;;;;;;;;;;;6.50;99.90;;;;;;5108035;28;19904;-67
2021/11/08 04:30:29;;;;;;;;;;;6.40;99.90;;;;;;5102654;28;19931;-67
2021/11/08 04:35:31;;;;;;;;;;;6.30;99.90;;;;;;5096329;28;20227;-67
2021/11/08 04:43:56;;;;;;;;;;;6.30;99.90;;;;;;5095391;28;20288;-69
2021/11/08 04:51:39;;;;;;;;;;;6.20;99.90;;;;;;5095627;28;19904;-68
2021/11/08 04:54:26;;;;;;;;;;;6.20;99.90;;;;;;5095806;28;19904;-68
2021/11/08 05:21:40;;;;;;;;;;;6.00;99.90;;;;;;5094837;28;20044;-67
2021/11/08 05:31:49;;;;;;;;;;;6.00;99.90;;;;;;5094650;28;19904;-70
2021/11/08 05:34:15;;;;;;;;;;;5.90;99.90;;;;;;5093354;28;19904;-70
2021/11/08 05:36:41;;;;;;;;;;;5.90;99.90;;;;;;5094531;28;19904;-68
2021/11/08 05:39:07;;;;;;;;;;;5.90;99.90;;;;;;5095373;28;20358;-69
2021/11/08 05:41:34;;;;;;;;;;;5.90;99.90;;;;;;5116060;22;19926;-71
2021/11/08 05:44:02;;;;;;;;;;;5.90;99.90;;;;;;5094369;28;20345;-70
2021/11/08 05:46:28;;;;;;;;;;;5.90;99.90;;;;;;5094708;28;19927;-68
2021/11/08 05:48:53;;;;;;;;;;;5.90;99.90;;;;;;5094559;28;19904;-68
2021/11/08 05:51:19;;;;;;;;;;;5.90;99.90;;;;;;5094751;28;19908;-71
2021/11/08 05:53:46;;;;;;;;;;;5.80;99.90;;;;;;5094411;28;19971;-72
2021/11/08 06:50:52;;;;;;;;;;;5.80;99.90;;;;;;5098611;28;20407;-73
2021/11/08 06:53:19;;;;;;;;;;;5.80;99.90;;;;;;5097647;28;19910;-71
2021/11/08 06:55:48;;;;;;;;;;;5.80;99.90;;;;;;5096264;28;19953;-72
2021/11/08 06:58:17;;;;;;;;;;;5.80;99.90;;;;;;5096016;28;19946;-71
2021/11/08 07:00:45;;;;;;;;;;;5.80;99.90;;;;;;5096309;28;19912;-72
2021/11/08 07:03:10;;;;;;;;;;;5.90;99.90;;;;;;5097357;28;20333;-73
2021/11/08 07:05:36;;;;;;;;;;;5.90;99.90;;;;;;5096119;28;19911;-72
2021/11/08 07:08:02;;;;;;;;;;;5.90;99.90;;;;;;5098471;28;20350;-73
2021/11/08 07:10:27;;;;;;;;;;;5.90;99.90;;;;;;5096293;28;19904;-71
2021/11/08 07:12:53;;;;;;;;;;;6.00;99.90;;;;;;5098353;28;20006;-72
2021/11/08 07:15:23;;;;;;;;;;;6.00;99.90;;;;;;5096324;28;19951;-67
2021/11/08 07:17:50;;;;;;;;;;;5.90;99.90;;;;;;5096562;28;19903;-69
2021/11/08 07:20:16;;;;;;;;;;;5.90;99.90;;;;;;5097147;28;19904;-70
2021/11/08 07:22:41;;;;;;;;;;;6.00;99.90;;;;;;5095987;28;19935;-67
2021/11/08 07:25:07;;;;;;;;;;;6.00;99.90;;;;;;5096965;28;19911;-66
2021/11/08 07:27:33;;;;;;;;;;;6.20;99.90;;;;;;5097021;28;19904;-68
2021/11/08 07:29:59;;;;;;;;;;;6.40;99.90;;;;;;5096590;28;20283;-68
2021/11/08 07:32:25;;;;;;;;;;;6.30;99.90;;;;;;5096804;28;19904;-69
2021/11/08 07:34:54;;;;;;;;;;;6.30;99.90;;;;;;5097211;28;19947;-68
2021/11/08 07:37:20;;;;;;;;;;;6.40;99.90;;;;;;5095985;28;19904;-69
2021/11/08 07:39:46;;;;;;;;;;;6.50;99.90;;;;;;5097590;28;19910;-69
2021/11/08 07:42:12;;;;;;;;;;;6.50;99.90;;;;;;5097331;28;20011;-70
2021/11/08 07:44:37;;;;;;;;;;;6.50;99.90;;;;;;5096198;28;19904;-68
2021/11/08 07:47:03;;;;;;;;;;;6.90;99.90;;;;;;5097091;28;19904;-68
2021/11/08 07:49:29;;;;;;;;;;;6.90;99.90;;;;;;5096513;28;19941;-68
2021/11/08 07:51:54;;;;;;;;;;;6.80;99.90;;;;;;5097125;28;19904;-68
2021/11/08 07:54:20;;;;;;;;;;;7.00;99.90;;;;;;5096839;28;19951;-67
2021/11/08 07:56:48;;;;;;;;;;;6.90;99.90;;;;;;5096997;28;19904;-73
2021/11/08 07:59:14;;;;;;;;;;;6.80;99.90;;;;;;5095396;28;20315;-69
2021/11/08 08:01:40;;;;;;;;;;;6.80;99.90;;;;;;5094671;28;19950;-70
2021/11/08 08:04:05;;;;;;;;;;;6.70;99.90;;;;;;5095958;28;19904;-69
2021/11/08 08:06:31;;;;;;;;;;;6.80;99.90;;;;;;5096467;28;19912;-69
2021/11/08 08:08:56;;;;;;;;;;;6.80;99.90;;;;;;5096341;28;19949;-70
2021/11/08 08:11:22;;;;;;;;;;;6.80;99.90;;;;;;5094617;28;19953;-70
2021/11/08 08:13:48;;;;;;;;;;;6.90;99.90;;;;;;5095343;28;19943;-71
2021/11/08 08:16:16;;;;;;;;;;;6.90;99.90;;;;;;5094734;28;19954;-70
2021/11/08 08:18:43;;;;;;;;;;;6.90;99.90;;;;;;5095029;28;19953;-70
2021/11/08 08:21:10;;;;;;;;;;;7.00;99.90;;;;;;5094856;28;19912;-71
2021/11/08 08:23:35;;;;;;;;;;;7.00;99.90;;;;;;5096223;28;19943;-70
2021/11/08 08:26:01;;;;;;;;;;;7.00;99.90;;;;;;5095843;28;19943;-70
2021/11/08 08:28:27;;;;;;;;;;;7.00;99.90;;;;;;5095908;28;19908;-70
2021/11/08 08:30:52;;;;;;;;;;;6.90;99.90;;;;;;5094191;28;19905;-71
2021/11/08 08:33:18;;;;;;;;;;;6.90;99.90;;;;;;5094222;28;19904;-71
2021/11/08 08:35:44;;;;;;;;;;;6.90;99.90;;;;;;5096432;28;19911;-71
2021/11/08 08:38:12;;;;;;;;;;;7.10;99.90;;;;;;5095623;28;19904;-70
2021/11/08 08:40:38;;;;;;;;;;;7.10;99.90;;;;;;5095428;28;19912;-70
2021/11/08 08:43:04;;;;;;;;;;;7.10;99.90;;;;;;5094084;28;19912;-71
2021/11/08 08:45:31;;;;;;;;;;;7.10;99.90;;;;;;5096109;28;19911;-71
2021/11/08 08:47:56;;;;;;;;;;;7.10;99.90;;;;;;5096838;28;20065;-71
2021/11/08 08:50:22;;;;;;;;;;;7.20;99.90;;;;;;5103763;28;20251;-71
2021/11/08 08:52:48;;;;;;;;;;;7.30;99.90;;;;;;5097793;28;19969;-70
2021/11/08 08:55:13;;;;;;;;;;;7.30;99.90;;;;;;5095971;28;20265;-71
2021/11/08 08:57:40;;;;;;;;;;;7.40;99.90;;;;;;5095149;28;20346;-70
2021/11/08 09:00:08;;;;;;;;;;;7.60;99.90;;;;;;5094901;28;19904;-71
2021/11/08 09:02:33;;;;;;;;;;;7.60;99.90;;;;;;5092701;28;20012;-71
2021/11/08 09:04:59;;;;;;;;;;;7.70;99.90;;;;;;5095247;28;19913;-70
2021/11/08 09:07:24;;;;;;;;;;;7.80;99.90;;;;;;5095681;28;20281;-71
2021/11/08 09:09:49;;;;;;;;;;;7.80;99.90;;;;;;5094190;28;19904;-69
2021/11/08 09:12:15;;;;;;;;;;;7.90;99.90;;;;;;5094722;28;19932;-70
2021/11/08 09:14:41;;;;;;;;;;;8.00;99.90;;;;;;5093601;28;19911;-70
2021/11/08 09:17:07;;;;;;;;;;;8.10;99.90;;;;;;5094161;28;20324;-72
2021/11/08 09:19:32;;;;;;;;;;;8.30;99.90;;;;;;5094904;28;19911;-71
2021/11/08 09:21:58;;;;;;;;;;;8.50;99.90;;;;;;5093224;28;20283;-71
2021/11/08 09:24:24;;;;;;;;;;;8.70;99.90;;;;;;5093443;28;19904;-71
2021/11/08 09:26:50;;;;;;;;;;;8.90;99.90;;;;;;5094589;28;19904;-70
2021/11/08 09:29:16;;;;;;;;;;;9.30;99.90;;;;;;5095213;28;19911;-70
2021/11/08 09:31:42;;;;;;;;;;;9.50;99.90;;;;;;5093269;28;19908;-70
2021/11/08 09:34:11;;;;;;;;;;;9.80;99.90;;;;;;5093996;28;19957;-70
2021/11/08 09:36:39;;;;;;;;;;;10.10;99.90;;;;;;5094382;28;19904;-70
2021/11/08 09:39:09;;;;;;;;;;;10.50;99.90;;;;;;5093890;28;20009;-69
2021/11/08 09:41:36;;;;;;;;;;;10.80;99.90;;;;;;5093068;28;20035;-69
2021/11/08 09:44:04;;;;;;;;;;;11.20;99.90;;;;;;5093227;28;20396;-69
2021/11/08 09:46:31;;;;;;;;;;;11.50;99.90;;;;;;5093114;28;19904;-69
2021/11/08 09:48:58;;;;;;;;;;;11.50;99.90;;;;;;5094277;28;20304;-69
2021/11/08 09:51:24;;;;;;;;;;;11.80;99.90;;;;;;5092828;28;19904;-69
2021/11/08 09:53:50;;;;;;;;;;;12.40;99.90;;;;;;5092793;28;19904;-69
2021/11/08 09:56:15;;;;;;;;;;;12.90;99.90;;;;;;5093906;28;19907;-69
2021/11/08 09:58:41;;;;;;;;;;;13.50;99.90;;;;;;5094153;28;19908;-69
2021/11/08 10:01:09;;;;;;;;;;;14.10;99.90;;;;;;5092578;28;19908;-69
2021/11/08 10:03:36;;;;;;;;;;;14.70;99.90;;;;;;5094375;28;19904;-69
2021/11/08 10:06:03;;;;;;;;;;;15.30;99.90;;;;;;5092750;28;19908;-69
2021/11/08 10:08:30;;;;;;;;;;;15.40;99.90;;;;;;5092761;28;19957;-70
2021/11/08 10:10:57;;;;;;;;;;;14.90;99.90;;;;;;5092553;28;20354;-69
2021/11/08 10:13:24;;;;;;;;;;;15.10;99.90;;;;;;5093890;28;19904;-70
2021/11/08 10:15:52;;;;;;;;;;;15.20;99.90;;;;;;5093916;28;19904;-69
2021/11/08 10:18:18;;;;;;;;;;;15.80;99.80;;;;;;5093149;28;19947;-69
2021/11/08 10:20:45;;;;;;;;;;;15.40;99.50;;;;;;5095062;28;19907;-70
2021/11/08 10:23:11;;;;;;;;;;;16.10;99.00;;;;;;5095939;28;20389;-69
2021/11/08 10:25:38;;;;;;;;;;;16.10;99.30;;;;;;5092760;28;19936;-69
2021/11/08 10:28:08;;;;;;;;;;;16.80;97.70;;;;;;5092542;28;19910;-69
2021/11/08 10:30:34;;;;;;;;;;;18.00;95.10;;;;;;5092439;28;19904;-69
2021/11/08 10:33:06;;;;;;;;;;;18.40;94.00;;;;;;5093580;28;20348;-69
2021/11/08 10:35:51;;;;;;;;;;;18.50;92.90;;;;;;5092282;28;19937;-70
2021/11/08 10:38:19;;;;;;;;;;;18.80;92.00;;;;;;5093636;28;19904;-70
2021/11/08 10:41:05;;;;;;;;;;;19.00;91.60;;;;;;5094468;28;19908;-69
2021/11/08 10:43:31;;;;;;;;;;;18.30;92.30;;;;;;5095692;28;20348;-70
2021/11/08 10:45:58;;;;;;;;;;;18.50;92.50;;;;;;5093746;28;19911;-70
2021/11/08 10:48:34;;;;;;;;;;;18.30;92.10;;;;;;5092192;28;20323;-69
2021/11/08 10:51:01;;;;;;;;;;;17.60;92.40;;;;;;5093633;28;20377;-70
2021/11/08 10:53:29;;;;;;;;;;;16.20;94.00;;;;;;5092313;28;20250;-70
2021/11/08 10:55:56;;;;;;;;;;;15.40;95.30;;;;;;5093447;28;20001;-69
2021/11/08 10:58:22;;;;;;;;;;;13.80;98.70;;;;;;5093642;28;19908;-69
2021/11/08 11:00:56;;;;;;;;;;;13.30;99.90;;;;;;5092051;28;20259;-68
2021/11/08 11:03:22;;;;;;;;;;;13.00;99.90;;;;;;5093483;28;19986;-69
2021/11/08 11:05:59;;;;;;;;;;;12.70;99.90;;;;;;5091890;28;19957;-70
2021/11/08 11:08:25;;;;;;;;;;;12.10;99.90;;;;;;5093516;28;19912;-68
2021/11/08 11:10:52;;;;;;;;;;;11.80;99.90;;;;;;5093460;28;19953;-69
2021/11/08 11:13:21;;;;;;;;;;;11.70;99.90;;;;;;5091922;28;19904;-70
2021/11/08 11:15:49;;;;;;;;;;;11.70;99.90;;;;;;5092561;28;19934;-69
2021/11/08 11:18:16;;;;;;;;;;;11.50;99.90;;;;;;5093819;28;19956;-70
2021/11/08 11:20:44;;;;;;;;;;;11.60;99.90;;;;;;5091927;28;19911;-70
2021/11/08 11:23:28;;;;;;;;;;;11.50;99.90;;;;;;5092799;28;19927;-70
2021/11/08 11:25:58;;;;;;;;;;;11.70;99.90;;;;;;5094533;28;19911;-70
2021/11/08 11:28:26;;;;;;;;;;;11.60;99.90;;;;;;5096705;28;19942;-70
2021/11/08 11:30:51;;;;;;;;;;;11.70;99.90;;;;;;5095280;28;19911;-70
2021/11/08 11:33:19;;;;;;;;;;;11.70;99.90;;;;;;5096567;28;19953;-69
2021/11/08 11:35:49;;;;;;;;;;;11.70;99.90;;;;;;5095047;28;19911;-69
2021/11/08 11:38:22;;;;;;;;;;;11.70;99.90;;;;;;5095043;28;19904;-69
2021/11/08 11:41:10;;;;;;;;;;;11.50;99.90;;;;;;5096540;28;19912;-69
2021/11/08 11:43:37;;;;;;;;;;;11.60;99.90;;;;;;5098643;28;20325;-71
2021/11/08 11:46:06;;;;;;;;;;;11.50;99.90;;;;;;5107960;28;19904;-71
2021/11/08 11:48:32;;;;;;;;;;;11.60;99.90;;;;;;5104396;28;20200;-72
2021/11/08 11:50:58;;;;;;;;;;;11.60;99.90;;;;;;5108465;28;19904;-71
2021/11/08 11:53:24;;;;;;;;;;;11.60;99.90;;;;;;5097409;28;19904;-71
2021/11/08 11:55:50;;;;;;;;;;;11.40;99.90;;;;;;5095248;28;19905;-71
2021/11/08 11:58:16;;;;;;;;;;;11.30;99.90;;;;;;5096516;28;19911;-71
2021/11/08 12:00:43;;;;;;;;;;;11.20;99.90;;;;;;5096130;28;20326;-71
2021/11/08 12:03:08;;;;;;;;;;;11.10;99.90;;;;;;5094594;28;20029;-71
2021/11/08 12:05:35;;;;;;;;;;;11.00;99.90;;;;;;5095867;28;19939;-71
2021/11/08 12:08:02;;;;;;;;;;;11.00;99.90;;;;;;5096039;28;19936;-71
2021/11/08 12:10:28;;;;;;;;;;;10.90;99.90;;;;;;5095848;28;19913;-71
2021/11/08 12:12:53;;;;;;;;;;;10.80;99.90;;;;;;5095822;28;19904;-71
2021/11/08 12:15:30;;;;;;;;;;;10.80;99.90;;;;;;5095907;28;20358;-71
2021/11/08 12:18:03;;;;;;;;;;;10.80;99.90;;;;;;5097259;28;20273;-72
2021/11/08 12:20:28;;;;;;;;;;;10.80;99.90;;;;;;5098225;28;19904;-71
2021/11/08 12:22:54;;;;;;;;;;;10.80;99.90;;;;;;5096011;28;20462;-71
2021/11/08 12:25:22;;;;;;;;;;;10.80;99.90;;;;;;5097100;28;19904;-71
2021/11/08 12:27:52;;;;;;;;;;;10.90;99.90;;;;;;5097797;28;19911;-71
2021/11/08 12:30:20;;;;;;;;;;;10.90;99.90;;;;;;5097612;28;19904;-71
2021/11/08 12:32:53;;;;;;;;;;;11.00;99.90;;;;;;5097951;28;20365;-71
2021/11/08 12:35:23;;;;;;;;;;;11.00;99.90;;;;;;5097179;28;19953;-71
2021/11/08 12:37:49;;;;;;;;;;;11.00;99.90;;;;;;5095061;28;19904;-71
2021/11/08 12:40:17;;;;;;;;;;;11.10;99.90;;;;;;5095485;28;19982;-72
2021/11/08 12:42:43;;;;;;;;;;;11.10;99.90;;;;;;5095286;28;19970;-71
2021/11/08 12:45:11;;;;;;;;;;;11.10;99.90;;;;;;5097138;28;19911;-72
2021/11/08 12:47:37;;;;;;;;;;;11.20;99.90;;;;;;5098001;28;20343;-72
2021/11/08 12:50:02;;;;;;;;;;;11.20;99.90;;;;;;5096856;28;19911;-71
2021/11/08 12:52:31;;;;;;;;;;;11.20;99.90;;;;;;5095474;28;20421;-71
2021/11/08 12:55:08;;;;;;;;;;;11.30;99.90;;;;;;5095219;28;19949;-71
2021/11/08 12:57:34;;;;;;;;;;;11.20;99.90;;;;;;5095630;28;19994;-71
2021/11/08 13:00:17;;;;;;;;;;;11.10;99.90;;;;;;5094999;28;19908;-71
2021/11/08 13:02:53;;;;;;;;;;;11.00;99.90;;;;;;5094981;28;19915;-71
2021/11/08 13:05:25;;;;;;;;;;;10.90;99.90;;;;;;5093705;28;19927;-71
2021/11/08 13:07:50;;;;;;;;;;;10.90;99.90;;;;;;5095122;28;20006;-71
2021/11/08 13:10:25;;;;;;;;;;;10.90;99.90;;;;;;5095111;28;20350;-72
2021/11/08 13:12:50;;;;;;;;;;;10.90;99.90;;;;;;5093491;28;19904;-71
2021/11/08 13:15:21;;;;;;;;;;;10.90;99.90;;;;;;5093554;28;20003;-70
2021/11/08 13:17:53;;;;;;;;;;;11.00;99.90;;;;;;5094924;28;19911;-70
2021/11/08 13:20:20;;;;;;;;;;;11.10;99.90;;;;;;5093068;28;19904;-70
2021/11/08 13:22:47;;;;;;;;;;;11.20;99.90;;;;;;5094756;28;19908;-70
2021/11/08 13:25:13;;;;;;;;;;;11.30;99.90;;;;;;5094681;28;19953;-71
2021/11/08 13:27:43;;;;;;;;;;;11.50;99.90;;;;;;5096022;28;19904;-71
2021/11/08 13:30:09;;;;;;;;;;;11.70;99.90;;;;;;5097576;28;19904;-71
2021/11/08 13:32:35;;;;;;;;;;;11.80;99.90;;;;;;5093334;28;19952;-70
2021/11/08 13:35:25;;;;;;;;;;;11.80;99.90;;;;;;5094417;28;19904;-71
2021/11/08 13:37:51;;;;;;;;;;;11.70;99.90;;;;;;5094312;28;20370;-70
2021/11/08 13:40:18;;;;;;;;;;;11.40;99.90;;;;;;5094349;28;19904;-70
2021/11/08 13:42:44;;;;;;;;;;;11.30;99.90;;;;;;5094350;28;19912;-72
2021/11/08 13:45:09;;;;;;;;;;;11.00;99.90;;;;;;5093047;28;19927;-71
2021/11/08 13:47:42;;;;;;;;;;;10.90;99.90;;;;;;5099514;28;19947;-71
2021/11/08 13:50:13;;;;;;;;;;;10.80;99.90;;;;;;5101180;28;20419;-71
2021/11/08 13:52:40;;;;;;;;;;;10.70;99.90;;;;;;5094059;28;19926;-70
2021/11/08 13:55:07;;;;;;;;;;;10.50;99.90;;;;;;5095137;28;19939;-71
2021/11/08 13:57:32;;;;;;;;;;;10.50;99.90;;;;;;5092842;28;19904;-71
2021/11/08 13:59:58;;;;;;;;;;;10.40;99.90;;;;;;5093885;28;19911;-71
2021/11/08 14:02:23;;;;;;;;;;;10.30;99.90;;;;;;5094137;28;19912;-71
2021/11/08 14:04:50;;;;;;;;;;;10.30;99.90;;;;;;5092937;28;19938;-71
2021/11/08 14:07:19;;;;;;;;;;;10.30;99.90;;;;;;5094246;28;19904;-71
2021/11/08 14:09:45;;;;;;;;;;;10.20;99.90;;;;;;5092375;28;19904;-71
2021/11/08 14:12:12;;;;;;;;;;;10.20;99.90;;;;;;5093458;28;19911;-73
2021/11/08 14:14:38;;;;;;;;;;;10.20;99.90;;;;;;5093569;28;19908;-69
2021/11/08 14:17:15;;;;;;;;;;;10.20;99.90;;;;;;5093501;28;19973;-69
2021/11/08 14:19:42;;;;;;;;;;;10.10;99.90;;;;;;5092268;28;19904;-70
2021/11/08 14:22:07;;;;;;;;;;;10.10;99.90;;;;;;5093557;28;19916;-72
2021/11/08 14:24:36;;;;;;;;;;;10.10;99.90;;;;;;5093563;28;20316;-69
2021/11/08 14:27:02;;;;;;;;;;;10.10;99.90;;;;;;5093651;28;19915;-71
2021/11/08 14:29:29;;;;;;;;;;;10.10;99.90;;;;;;5092163;28;19995;-69
2021/11/08 14:31:59;;;;;;;;;;;10.10;99.90;;;;;;5093563;28;19938;-74
2021/11/08 14:34:28;;;;;;;;;;;10.20;99.90;;;;;;5092043;28;20282;-72
2021/11/08 14:36:54;;;;;;;;;;;10.10;99.90;;;;;;5092113;28;19904;-73
2021/11/08 14:39:22;;;;;;;;;;;10.20;99.90;;;;;;5091982;28;20373;-72
2021/11/08 14:41:53;;;;;;;;;;;10.20;99.90;;;;;;5093431;28;19916;-72
2021/11/08 14:44:19;;;;;;;;;;;10.20;99.90;;;;;;5092089;28;19939;-71
2021/11/08 14:46:46;;;;;;;;;;;10.20;99.90;;;;;;5092154;28;19904;-71
2021/11/08 14:49:11;;;;;;;;;;;10.30;99.90;;;;;;5091921;28;19904;-69
2021/11/08 14:51:37;;;;;;;;;;;10.30;99.90;;;;;;5093415;28;20273;-70
2021/11/08 14:54:04;;;;;;;;;;;10.30;99.90;;;;;;5093473;28;19941;-72
2021/11/08 14:56:34;;;;;;;;;;;10.30;99.90;;;;;;5093663;28;19911;-70
2021/11/08 14:59:02;;;;;;;;;;;10.30;99.90;;;;;;5092139;28;19927;-69
2021/11/08 15:01:28;;;;;;;;;;;10.30;99.90;;;;;;5097081;28;19908;-72
2021/11/08 15:04:00;;;;;;;;;;;10.20;99.90;;;;;;5097338;28;19957;-69
2021/11/08 15:06:26;;;;;;;;;;;10.20;99.90;;;;;;5097139;28;19904;-68
2021/11/08 15:09:07;;;;;;;;;;;10.20;99.90;;;;;;5095837;28;19965;-68
2021/11/08 15:11:35;;;;;;;;;;;10.20;99.90;;;;;;5097364;28;19904;-73
2021/11/08 15:14:05;;;;;;;;;;;10.20;99.90;;;;;;5097175;28;20005;-69
2021/11/08 15:16:41;;;;;;;;;;;10.10;99.90;;;;;;5096747;28;19910;-68
2021/11/08 15:19:06;;;;;;;;;;;10.10;99.90;;;;;;5096873;28;20022;-68
2021/11/08 15:21:33;;;;;;;;;;;10.10;99.90;;;;;;5097212;28;20338;-69
2021/11/08 15:24:05;;;;;;;;;;;10.00;99.90;;;;;;5095372;28;19911;-71
2021/11/08 15:26:30;;;;;;;;;;;10.10;99.90;;;;;;5097077;28;19904;-71
2021/11/08 15:28:57;;;;;;;;;;;10.10;99.90;;;;;;5096878;28;20273;-72
2021/11/08 15:31:24;;;;;;;;;;;10.00;99.90;;;;;;5096574;28;19947;-71
2021/11/08 15:34:10;;;;;;;;;;;10.00;99.90;;;;;;5095614;28;19904;-73
2021/11/08 15:36:41;;;;;;;;;;;10.00;99.90;;;;;;5095346;28;19904;-71
2021/11/08 15:39:09;;;;;;;;;;;9.90;99.90;;;;;;5095231;28;19904;-70
2021/11/08 15:41:36;;;;;;;;;;;9.90;99.90;;;;;;5095908;28;19912;-70
2021/11/08 15:44:02;;;;;;;;;;;9.90;99.90;;;;;;5099227;28;19919;-70
2021/11/08 15:46:28;;;;;;;;;;;9.90;99.90;;;;;;5095930;28;19904;-68
2021/11/08 15:48:54;;;;;;;;;;;9.90;99.90;;;;;;5096421;28;19927;-69
2021/11/08 15:51:22;;;;;;;;;;;9.90;99.90;;;;;;5096527;28;19912;-68
2021/11/08 15:53:48;;;;;;;;;;;9.90;99.90;;;;;;5096540;28;19990;-69
2021/11/08 15:56:14;;;;;;;;;;;9.90;99.90;;;;;;5096165;28;20326;-70
2021/11/08 15:58:39;;;;;;;;;;;9.90;99.90;;;;;;5094826;28;19904;-66
2021/11/08 16:01:07;;;;;;;;;;;9.90;99.90;;;;;;5096356;28;20362;-71
2021/11/08 16:03:33;;;;;;;;;;;9.90;99.90;;;;;;5096872;28;20381;-70
2021/11/08 16:05:59;;;;;;;;;;;9.90;99.90;;;;;;5096483;28;19904;-72
2021/11/08 16:08:24;;;;;;;;;;;9.90;99.90;;;;;;5096201;28;20350;-71
2021/11/08 16:10:50;;;;;;;;;;;9.90;99.90;;;;;;5094499;28;19909;-71
2021/11/08 16:13:15;;;;;;;;;;;9.90;99.90;;;;;;5096416;28;19904;-71